Time;durP1;ratioP1;P1;durP2;ratioP2;P2;SDS_P1;SDS_P2;PMS_P1;PMS_P2;Temp;Humidity;BMP_temperature;BMP_pressure;BME280_temperature;BME280_humidity;BME280_pressure;Samples;Min_cycle;Max_cycle;Signal;HPM_P1;HPM_P2
2023/09/24 00:00:10;;;;;;;2.60;2.20;;;15.10;99.90;;;;;;10329745;28;20741;-80
2023/09/24 00:05:13;;;;;;;2.53;2.43;;;15.00;99.90;;;;;;10359853;28;20223;-79
2023/09/24 00:10:16;;;;;;;2.80;2.60;;;14.90;99.90;;;;;;10379533;28;20246;-79
2023/09/24 00:15:19;;;;;;;2.80;2.53;;;14.90;99.90;;;;;;10358195;28;20227;-80
2023/09/24 00:20:21;;;;;;;4.10;2.97;;;14.80;99.90;;;;;;10346710;28;20678;-79
2023/09/24 00:25:26;;;;;;;3.27;3.07;;;14.80;99.90;;;;;;10356087;28;20231;-80
2023/09/24 00:30:28;;;;;;;2.83;2.63;;;14.70;99.90;;;;;;10350396;28;20207;-80
2023/09/24 00:35:31;;;;;;;3.30;3.00;;;14.70;99.90;;;;;;10379455;28;20675;-79
2023/09/24 00:40:35;;;;;;;3.20;3.00;;;14.70;99.90;;;;;;10330075;28;20319;-80
2023/09/24 00:45:37;;;;;;;4.97;2.90;;;14.70;99.90;;;;;;10362972;28;20235;-79
2023/09/24 00:50:41;;;;;;;3.27;3.10;;;14.70;99.90;;;;;;10355765;28;20230;-79
2023/09/24 00:55:45;;;;;;;6.20;2.90;;;14.60;99.90;;;;;;10332750;28;20235;-80
2023/09/24 01:00:47;;;;;;;2.80;2.70;;;14.60;99.90;;;;;;10351431;28;20235;-79
2023/09/24 01:05:50;;;;;;;3.10;2.90;;;14.60;99.90;;;;;;10359893;28;20231;-80
2023/09/24 01:10:56;;;;;;;2.90;2.70;;;14.60;99.90;;;;;;10355581;28;20207;-79
2023/09/24 01:15:58;;;;;;;2.90;2.70;;;14.50;99.90;;;;;;10341777;28;20223;-79
2023/09/24 01:21:02;;;;;;;2.83;2.63;;;14.50;99.90;;;;;;10345865;28;20203;-80
2023/09/24 01:26:07;;;;;;;4.27;3.50;;;14.50;99.90;;;;;;10358961;28;20294;-79
2023/09/24 01:31:10;;;;;;;3.00;2.80;;;14.50;99.90;;;;;;10389045;28;20207;-80
2023/09/24 01:36:13;;;;;;;2.87;2.77;;;14.40;99.90;;;;;;10334205;28;20232;-79
2023/09/24 01:41:19;;;;;;;2.60;2.40;;;14.40;99.90;;;;;;10357708;28;20303;-79
2023/09/24 01:46:21;;;;;;;2.60;2.50;;;14.40;99.90;;;;;;10363912;28;20262;-79
2023/09/24 01:51:23;;;;;;;2.53;2.43;;;14.40;99.90;;;;;;10366897;28;20215;-78
2023/09/24 01:56:27;;;;;;;3.23;2.90;;;14.30;99.90;;;;;;10387986;28;20258;-79
2023/09/24 02:01:29;;;;;;;3.53;2.47;;;14.30;99.90;;;;;;10349020;28;20698;-80
2023/09/24 02:06:34;;;;;;;2.87;2.77;;;14.20;99.90;;;;;;10359051;28;20231;-80
2023/09/24 02:11:38;;;;;;;3.60;2.93;;;14.20;99.90;;;;;;10344231;28;20208;-80
2023/09/24 02:16:42;;;;;;;3.33;2.60;;;14.20;99.90;;;;;;10357041;28;20227;-80
2023/09/24 02:21:46;;;;;;;3.00;2.80;;;14.10;99.90;;;;;;10373082;28;20286;-79
2023/09/24 02:26:49;;;;;;;3.40;3.20;;;14.10;99.90;;;;;;10341145;28;20223;-79
2023/09/24 02:31:52;;;;;;;3.30;3.10;;;14.10;99.90;;;;;;10356210;28;20289;-79
2023/09/24 02:36:54;;;;;;;6.77;2.90;;;14.00;99.90;;;;;;10348085;28;20234;-79
2023/09/24 02:41:58;;;;;;;3.70;3.50;;;14.00;99.90;;;;;;10351654;28;20270;-79
2023/09/24 02:47:00;;;;;;;3.10;2.90;;;14.00;99.90;;;;;;10371400;28;20223;-79
2023/09/24 02:52:02;;;;;;;3.07;2.97;;;13.90;99.90;;;;;;10359396;28;20507;-79
2023/09/24 02:57:06;;;;;;;3.93;2.90;;;13.90;99.90;;;;;;10335961;28;20259;-79
2023/09/24 03:02:08;;;;;;;4.10;3.70;;;13.80;99.90;;;;;;10334492;28;20238;-79
2023/09/24 03:07:10;;;;;;;3.47;2.97;;;13.80;99.90;;;;;;10337924;28;20651;-79
2023/09/24 03:12:14;;;;;;;5.43;3.43;;;13.80;99.90;;;;;;10351008;28;20663;-79
2023/09/24 03:17:16;;;;;;;3.50;2.90;;;13.80;99.90;;;;;;10408108;23;20241;-82
2023/09/24 03:22:20;;;;;;;3.30;2.80;;;13.80;99.90;;;;;;10407956;28;20690;-81
2023/09/24 03:27:24;;;;;;;6.20;3.67;;;13.70;99.90;;;;;;10388172;28;20231;-81
2023/09/24 03:32:26;;;;;;;3.13;2.93;;;13.70;99.90;;;;;;10360494;28;20203;-80
2023/09/24 03:37:28;;;;;;;4.57;3.80;;;13.70;99.90;;;;;;10357600;28;20230;-81
2023/09/24 03:42:32;;;;;;;2.80;2.53;;;13.60;99.90;;;;;;10356819;28;20225;-81
2023/09/24 03:47:34;;;;;;;3.10;2.80;;;13.60;99.90;;;;;;10374148;28;20339;-81
2023/09/24 03:52:37;;;;;;;4.63;2.60;;;13.60;99.90;;;;;;10357927;28;20210;-81
2023/09/24 03:57:41;;;;;;;2.83;2.63;;;13.60;99.90;;;;;;10357934;28;20666;-81
2023/09/24 04:02:46;;;;;;;5.03;3.20;;;13.60;99.90;;;;;;10358574;28;20303;-80
2023/09/24 04:07:50;;;;;;;4.07;2.40;;;13.50;99.90;;;;;;10380531;28;20227;-81
2023/09/24 04:12:54;;;;;;;2.40;2.30;;;13.50;99.90;;;;;;10373413;28;20203;-81
2023/09/24 04:17:57;;;;;;;3.60;3.40;;;13.50;99.90;;;;;;10374366;28;20239;-81
2023/09/24 04:22:59;;;;;;;4.07;2.40;;;13.50;99.90;;;;;;10372267;28;20211;-82
2023/09/24 04:28:02;;;;;;;2.97;2.67;;;13.50;99.90;;;;;;10373717;28;20680;-81
2023/09/24 04:33:09;;;;;;;2.97;2.77;;;13.40;99.90;;;;;;10373910;28;20210;-81
2023/09/24 04:38:11;;;;;;;2.80;2.50;;;13.40;99.90;;;;;;10374444;28;20358;-81
2023/09/24 04:43:17;;;;;;;3.23;2.93;;;13.40;99.90;;;;;;10375354;28;20213;-82
2023/09/24 04:48:20;;;;;;;3.17;2.97;;;13.40;99.90;;;;;;10377080;28;20792;-82
2023/09/24 04:53:22;;;;;;;3.80;2.67;;;13.30;99.90;;;;;;10356922;28;20226;-82
2023/09/24 04:58:25;;;;;;;3.40;3.20;;;13.30;99.90;;;;;;10375741;28;20503;-81
2023/09/24 05:03:27;;;;;;;3.37;2.97;;;13.30;99.90;;;;;;10385038;28;20207;-81
2023/09/24 05:08:29;;;;;;;3.40;3.20;;;13.30;99.90;;;;;;10377582;28;20223;-81
2023/09/24 05:13:33;;;;;;;3.00;2.77;;;13.30;99.90;;;;;;10356232;28;20211;-81
2023/09/24 05:18:36;;;;;;;5.13;2.93;;;13.30;99.90;;;;;;10375953;28;20231;-81
2023/09/24 05:23:38;;;;;;;2.60;2.50;;;13.20;99.90;;;;;;10374653;28;20223;-81
2023/09/24 05:28:42;;;;;;;3.60;3.30;;;13.20;99.90;;;;;;10375819;28;20219;-79
2023/09/24 05:33:47;;;;;;;2.80;2.60;;;13.20;99.90;;;;;;10376676;28;20211;-80
2023/09/24 05:38:49;;;;;;;3.03;2.83;;;13.20;99.90;;;;;;10400127;28;20239;-81
2023/09/24 05:43:54;;;;;;;2.90;2.70;;;13.10;99.90;;;;;;10359737;28;20215;-81
2023/09/24 05:48:58;;;;;;;4.10;2.93;;;13.10;99.90;;;;;;10372059;28;20219;-81
2023/09/24 05:54:00;;;;;;;3.00;2.80;;;13.20;99.90;;;;;;10371577;28;20614;-80
2023/09/24 05:59:04;;;;;;;2.93;2.73;;;13.20;99.90;;;;;;10370828;28;20237;-81
2023/09/24 06:04:06;;;;;;;3.43;3.13;;;13.20;99.90;;;;;;10360835;28;20234;-81
2023/09/24 06:09:09;;;;;;;3.23;3.00;;;13.20;99.90;;;;;;10379740;28;20283;-81
2023/09/24 06:14:13;;;;;;;3.37;3.13;;;13.30;99.90;;;;;;10379206;28;20313;-81
2023/09/24 06:19:15;;;;;;;3.13;2.93;;;13.30;99.90;;;;;;10378666;28;20254;-81
2023/09/24 06:24:17;;;;;;;4.07;3.70;;;13.40;99.90;;;;;;10376954;28;20261;-81
2023/09/24 06:29:20;;;;;;;3.80;3.50;;;13.40;99.90;;;;;;10377608;28;20196;-80
2023/09/24 06:34:24;;;;;;;3.00;2.80;;;13.40;99.90;;;;;;10378165;28;20681;-81
2023/09/24 06:39:26;;;;;;;3.47;3.20;;;13.50;99.90;;;;;;10378805;28;20219;-81
2023/09/24 06:44:30;;;;;;;3.27;2.97;;;13.50;99.90;;;;;;10376659;28;20237;-78
2023/09/24 06:49:32;;;;;;;3.77;3.30;;;13.60;99.90;;;;;;10358352;28;20219;-81
2023/09/24 06:54:34;;;;;;;4.53;3.40;;;13.70;99.90;;;;;;10376956;28;20707;-80
2023/09/24 06:59:37;;;;;;;3.77;3.40;;;13.70;99.90;;;;;;10374668;28;20239;-78
2023/09/24 07:04:40;;;;;;;3.43;3.20;;;13.80;99.90;;;;;;10374332;28;20235;-79
2023/09/24 07:09:42;;;;;;;4.97;4.00;;;13.80;99.90;;;;;;10372462;28;20266;-79
2023/09/24 07:14:45;;;;;;;4.90;3.77;;;13.90;99.90;;;;;;10377126;28;20235;-79
2023/09/24 07:19:47;;;;;;;3.27;3.07;;;13.90;99.90;;;;;;10372221;28;20235;-81
2023/09/24 07:24:49;;;;;;;3.80;3.60;;;14.00;99.90;;;;;;10374672;28;20258;-78
2023/09/24 07:29:53;;;;;;;5.07;4.23;;;14.10;99.90;;;;;;10372684;28;20314;-79
2023/09/24 07:34:55;;;;;;;3.50;3.30;;;14.20;99.90;;;;;;10364292;28;20231;-81
2023/09/24 07:39:57;;;;;;;3.70;3.40;;;14.30;99.90;;;;;;10354985;28;20219;-79
2023/09/24 07:45:01;;;;;;;4.00;3.70;;;14.40;99.90;;;;;;10360412;28;20284;-78
2023/09/24 07:50:03;;;;;;;4.80;4.37;;;14.50;99.90;;;;;;10376242;28;20289;-80
2023/09/24 07:55:06;;;;;;;3.90;3.70;;;14.60;99.90;;;;;;10382002;28;20228;-80
2023/09/24 08:00:11;;;;;;;4.03;3.70;;;14.80;99.90;;;;;;10380267;28;20314;-77
2023/09/24 08:05:16;;;;;;;3.60;3.33;;;14.90;99.90;;;;;;10376957;28;20310;-78
2023/09/24 08:10:18;;;;;;;3.77;3.53;;;15.00;99.90;;;;;;10353065;28;20563;-80
2023/09/24 08:15:22;;;;;;;4.23;3.93;;;15.10;99.90;;;;;;10373112;28;20310;-79
2023/09/24 08:20:25;;;;;;;7.53;3.70;;;15.20;99.90;;;;;;10370760;28;20671;-79
2023/09/24 08:25:27;;;;;;;3.63;3.33;;;15.30;99.90;;;;;;10369709;28;20589;-79
2023/09/24 08:30:32;;;;;;;4.30;3.50;;;15.40;99.90;;;;;;10356810;28;20207;-82
2023/09/24 08:35:37;;;;;;;3.80;3.60;;;15.50;99.90;;;;;;10376283;28;20219;-81
2023/09/24 08:40:41;;;;;;;4.40;4.10;;;15.60;99.90;;;;;;10376242;28;20269;-82
2023/09/24 08:45:45;;;;;;;3.30;3.00;;;15.70;99.90;;;;;;10374359;28;20302;-82
2023/09/24 08:50:48;;;;;;;3.83;3.53;;;15.80;99.90;;;;;;10365283;28;20690;-82
2023/09/24 08:55:51;;;;;;;3.23;2.83;;;15.90;99.90;;;;;;10371313;28;20239;-81
2023/09/24 09:00:55;;;;;;;3.40;2.83;;;16.00;99.90;;;;;;10369830;28;20303;-81
2023/09/24 09:05:57;;;;;;;4.53;3.10;;;16.10;99.90;;;;;;10384005;28;20227;-81
2023/09/24 09:10:59;;;;;;;3.30;2.93;;;16.20;99.90;;;;;;10373527;28;20506;-81
2023/09/24 09:16:03;;;;;;;2.83;2.63;;;16.20;99.90;;;;;;10385317;23;20771;-77
2023/09/24 09:21:05;;;;;;;3.17;2.87;;;16.20;99.90;;;;;;10397501;28;20227;-77
2023/09/24 09:26:08;;;;;;;3.03;2.80;;;16.30;99.90;;;;;;10360055;28;20223;-77
2023/09/24 09:31:12;;;;;;;3.90;3.30;;;16.40;99.90;;;;;;10372239;28;20211;-77
2023/09/24 09:36:22;;;;;;;2.73;2.40;;;16.60;98.30;;;;;;10398023;28;20748;-77
2023/09/24 09:41:26;;;;;;;2.97;2.77;;;16.80;98.90;;;;;;10380239;28;20237;-77
2023/09/24 09:46:30;;;;;;;3.30;3.00;;;17.10;98.10;;;;;;10392664;28;20232;-77
2023/09/24 09:51:39;;;;;;;2.90;2.70;;;17.30;97.50;;;;;;10364723;28;20207;-77
2023/09/24 09:56:41;;;;;;;2.43;2.23;;;17.60;96.30;;;;;;10378787;28;20237;-78
2023/09/24 10:01:45;;;;;;;3.77;2.60;;;17.70;95.60;;;;;;10388429;28;20629;-77
2023/09/24 10:06:48;;;;;;;3.53;3.03;;;17.80;96.60;;;;;;10382572;28;20238;-77
2023/09/24 10:11:56;;;;;;;2.83;2.63;;;17.80;96.50;;;;;;10372035;28;20221;-77
2023/09/24 10:17:23;;;;;;;2.30;2.20;;;17.70;96.60;;;;;;10387744;28;20242;-76
2023/09/24 10:22:26;;;;;;;3.20;2.60;;;17.70;96.90;;;;;;10380842;28;20262;-78
2023/09/24 10:27:31;;;;;;;3.70;2.80;;;17.60;96.70;;;;;;10380240;28;20262;-77
2023/09/24 10:32:45;;;;;;;2.93;2.60;;;17.60;96.30;;;;;;10384846;28;20562;-78
2023/09/24 10:38:02;;;;;;;4.30;3.00;;;17.50;95.80;;;;;;10378199;28;20235;-77
2023/09/24 10:43:15;;;;;;;2.50;2.30;;;17.50;95.90;;;;;;10397593;28;20206;-77
2023/09/24 10:48:20;;;;;;;3.00;2.70;;;17.40;94.60;;;;;;10380423;28;20701;-77
2023/09/24 10:53:23;;;;;;;2.30;2.10;;;17.50;93.40;;;;;;10380288;28;20207;-77
2023/09/24 10:58:25;;;;;;;2.53;2.33;;;17.50;93.80;;;;;;10373050;28;20223;-77
2023/09/24 11:03:35;;;;;;;2.50;2.30;;;17.50;92.60;;;;;;10375797;28;20198;-77
2023/09/24 11:08:37;;;;;;;2.30;2.20;;;17.50;93.40;;;;;;10401655;28;20258;-77
2023/09/24 11:13:39;;;;;;;2.53;2.33;;;17.50;93.20;;;;;;10396809;28;20242;-77
2023/09/24 11:18:49;;;;;;;2.47;2.10;;;17.50;93.30;;;;;;10397707;28;20231;-77
2023/09/24 11:23:51;;;;;;;2.40;2.20;;;17.50;94.00;;;;;;10377351;28;20211;-77
2023/09/24 11:28:56;;;;;;;2.10;2.00;;;17.60;94.40;;;;;;10393738;28;20249;-76
2023/09/24 11:34:00;;;;;;;2.23;1.87;;;17.60;93.50;;;;;;10411408;28;20211;-77
2023/09/24 11:39:03;;;;;;;1.90;1.80;;;17.70;93.70;;;;;;10381014;28;20297;-77
2023/09/24 11:44:05;;;;;;;2.60;2.30;;;17.70;91.30;;;;;;10395909;28;20217;-77
2023/09/24 11:49:09;;;;;;;2.07;1.80;;;17.80;91.90;;;;;;10410501;28;20727;-77
2023/09/24 11:54:13;;;;;;;2.30;2.00;;;17.80;90.80;;;;;;10392681;28;20277;-77
2023/09/24 11:59:15;;;;;;;2.33;2.13;;;17.80;91.30;;;;;;10390165;28;20286;-77
2023/09/24 12:04:19;;;;;;;7.00;2.07;;;17.90;91.00;;;;;;10377570;28;20214;-77
2023/09/24 12:09:21;;;;;;;2.07;1.93;;;17.90;90.10;;;;;;10408308;28;20230;-76
2023/09/24 12:14:23;;;;;;;2.40;2.20;;;17.90;91.60;;;;;;10363569;28;20226;-77
2023/09/24 12:19:27;;;;;;;3.63;2.23;;;17.90;91.00;;;;;;10392834;28;20635;-77
2023/09/24 12:24:29;;;;;;;1.97;1.87;;;17.90;91.80;;;;;;10364522;28;20210;-77
2023/09/24 12:29:31;;;;;;;2.27;2.10;;;17.90;91.00;;;;;;10373423;28;20233;-77
2023/09/24 12:34:34;;;;;;;2.10;1.90;;;18.00;91.00;;;;;;10376368;28;20214;-77
2023/09/24 12:39:36;;;;;;;2.17;1.97;;;18.10;90.20;;;;;;10354708;28;20227;-77
2023/09/24 12:44:38;;;;;;;2.47;2.27;;;18.20;89.90;;;;;;10380996;28;20206;-77
2023/09/24 12:49:42;;;;;;;2.87;2.30;;;18.20;91.60;;;;;;10391430;28;20205;-77
2023/09/24 12:54:44;;;;;;;4.33;2.20;;;18.20;91.30;;;;;;10388298;28;20239;-77
2023/09/24 12:59:46;;;;;;;2.23;2.07;;;18.30;90.80;;;;;;10368909;28;20653;-76
2023/09/24 13:04:50;;;;;;;1.60;1.50;;;18.30;91.50;;;;;;10379236;28;20207;-77
2023/09/24 13:09:52;;;;;;;2.77;2.50;;;18.30;92.10;;;;;;10375938;28;20203;-77
2023/09/24 13:14:54;;;;;;;3.77;2.40;;;18.40;91.00;;;;;;10368269;28;20239;-76
2023/09/24 13:19:58;;;;;;;2.20;2.00;;;18.50;90.60;;;;;;10364724;28;20254;-76
2023/09/24 13:25:00;;;;;;;2.30;2.10;;;18.40;91.00;;;;;;10392210;28;20222;-77
2023/09/24 13:30:02;;;;;;;4.40;2.30;;;18.40;90.50;;;;;;10416569;28;20199;-76
2023/09/24 13:35:07;;;;;;;1.90;1.80;;;18.40;90.70;;;;;;10377711;28;20227;-77
2023/09/24 13:40:11;;;;;;;1.97;1.77;;;18.40;91.10;;;;;;10386704;28;20231;-77
2023/09/24 13:45:13;;;;;;;2.20;2.10;;;18.50;90.00;;;;;;10373406;28;20319;-77
2023/09/24 13:50:17;;;;;;;1.80;1.70;;;18.50;87.60;;;;;;10378335;28;20210;-77
2023/09/24 13:55:19;;;;;;;1.80;1.60;;;18.50;90.20;;;;;;10397135;28;20231;-77
2023/09/24 14:00:21;;;;;;;2.23;2.03;;;18.50;89.20;;;;;;10391046;28;20276;-76
2023/09/24 14:05:26;;;;;;;2.40;2.20;;;18.50;90.60;;;;;;10397042;28;20227;-76
2023/09/24 14:15:48;;;;;;;3.87;2.20;;;18.70;87.50;;;;;;10400936;28;20226;-77
2023/09/24 14:20:51;;;;;;;2.30;2.10;;;18.70;89.10;;;;;;10391196;28;20231;-77
2023/09/24 14:25:53;;;;;;;2.17;2.00;;;18.60;90.80;;;;;;10382011;28;20706;-76
2023/09/24 14:30:55;;;;;;;1.80;1.70;;;18.60;91.00;;;;;;10379833;28;20208;-77
2023/09/24 14:36:00;;;;;;;2.00;1.90;;;18.50;92.50;;;;;;10378946;28;20698;-77
2023/09/24 14:41:02;;;;;;;2.10;1.90;;;18.50;91.60;;;;;;10380810;28;20776;-76
2023/09/24 14:46:05;;;;;;;2.10;2.00;;;18.50;91.80;;;;;;10374200;28;20231;-77
2023/09/24 14:51:08;;;;;;;2.17;2.00;;;18.50;91.00;;;;;;10394875;28;20203;-77
2023/09/24 14:56:10;;;;;;;2.70;2.47;;;18.50;88.30;;;;;;10358234;28;20234;-77
2023/09/24 15:01:12;;;;;;;1.80;1.70;;;18.50;88.90;;;;;;10355484;28;20226;-77
2023/09/24 15:06:16;;;;;;;2.60;2.20;;;18.60;88.40;;;;;;10381208;28;20230;-77
2023/09/24 15:11:19;;;;;;;1.90;1.80;;;18.60;85.80;;;;;;10378731;28;20199;-76
2023/09/24 15:16:21;;;;;;;2.20;2.00;;;18.70;87.30;;;;;;10381015;28;20231;-77
2023/09/24 15:21:25;;;;;;;1.93;1.83;;;18.70;88.60;;;;;;10361407;28;20602;-77
2023/09/24 15:26:27;;;;;;;2.20;2.10;;;18.70;89.00;;;;;;10386272;28;20220;-76
2023/09/24 15:31:29;;;;;;;2.03;1.87;;;18.70;90.50;;;;;;10376443;28;20287;-77
2023/09/24 15:36:32;;;;;;;1.70;1.60;;;18.70;89.80;;;;;;10389101;28;20250;-77
2023/09/24 15:41:34;;;;;;;2.30;2.03;;;18.70;87.30;;;;;;10379668;28;20223;-77
2023/09/24 15:46:36;;;;;;;2.10;2.00;;;18.70;89.80;;;;;;10381760;28;20215;-77
2023/09/24 15:51:40;;;;;;;3.03;2.33;;;18.70;90.80;;;;;;10358375;28;20631;-77
2023/09/24 15:56:42;;;;;;;2.60;2.13;;;18.70;90.80;;;;;;10390914;28;20226;-77
2023/09/24 16:01:44;;;;;;;1.80;1.70;;;18.70;90.10;;;;;;10372443;28;20246;-77
2023/09/24 16:06:48;;;;;;;2.03;1.90;;;18.70;89.80;;;;;;10381003;28;20215;-77
2023/09/24 16:11:50;;;;;;;1.87;1.73;;;18.70;90.20;;;;;;10362099;28;20252;-77
2023/09/24 16:16:52;;;;;;;2.30;2.20;;;18.60;91.40;;;;;;10412637;28;20325;-77
2023/09/24 16:21:55;;;;;;;2.23;2.00;;;18.60;91.40;;;;;;10383112;28;20222;-77
2023/09/24 16:26:58;;;;;;;4.40;2.37;;;18.50;92.10;;;;;;10403194;28;20223;-77
2023/09/24 16:32:00;;;;;;;2.47;2.27;;;18.40;92.90;;;;;;10376158;28;20207;-77
2023/09/24 16:37:04;;;;;;;3.77;2.37;;;18.30;93.50;;;;;;10410588;28;20230;-77
2023/09/24 16:42:06;;;;;;;2.63;2.43;;;18.30;92.60;;;;;;10375489;28;20904;-77
2023/09/24 16:47:08;;;;;;;8.03;2.20;;;18.20;92.90;;;;;;10411352;28;20700;-77
2023/09/24 16:52:12;;;;;;;2.50;1.90;;;18.20;91.90;;;;;;10411393;28;20255;-77
2023/09/24 16:57:14;;;;;;;2.90;2.20;;;18.20;91.80;;;;;;10408552;28;20225;-77
2023/09/24 17:02:16;;;;;;;2.43;2.20;;;18.10;92.00;;;;;;10373635;28;20237;-77
2023/09/24 17:07:19;;;;;;;1.87;1.77;;;18.10;92.20;;;;;;10409942;28;20223;-77
2023/09/24 17:12:22;;;;;;;2.60;1.87;;;18.00;92.50;;;;;;10399775;28;20202;-77
2023/09/24 17:17:24;;;;;;;2.57;2.37;;;17.80;92.60;;;;;;10409237;28;20245;-77
2023/09/24 17:22:27;;;;;;;2.90;2.60;;;17.70;92.60;;;;;;10376348;28;20230;-77
2023/09/24 17:27:29;;;;;;;2.80;2.10;;;17.60;92.60;;;;;;10409315;28;20226;-77
2023/09/24 17:32:31;;;;;;;2.50;2.03;;;17.50;93.20;;;;;;10386451;28;20202;-77
2023/09/24 17:37:35;;;;;;;2.93;2.47;;;17.30;92.90;;;;;;10418503;28;20727;-77
2023/09/24 17:42:37;;;;;;;4.33;2.70;;;17.20;93.00;;;;;;10390384;28;20306;-76
2023/09/24 17:47:39;;;;;;;3.27;2.70;;;17.10;93.00;;;;;;10394975;28;20585;-76
2023/09/24 17:52:42;;;;;;;4.10;2.57;;;16.90;92.70;;;;;;10377998;28;20246;-77
2023/09/24 17:57:45;;;;;;;3.00;2.63;;;16.90;92.70;;;;;;10373779;28;20298;-77
2023/09/24 18:02:47;;;;;;;2.87;2.67;;;16.80;92.90;;;;;;10404676;28;20260;-77
2023/09/24 18:07:50;;;;;;;3.00;2.73;;;16.70;93.00;;;;;;10383141;28;20237;-77
2023/09/24 18:12:52;;;;;;;3.80;3.50;;;16.60;92.70;;;;;;10376719;28;20207;-77
2023/09/24 18:17:54;;;;;;;4.07;3.50;;;16.50;93.00;;;;;;10395967;28;20246;-77
2023/09/24 18:22:58;;;;;;;4.30;4.00;;;16.40;93.10;;;;;;10388931;28;20241;-77
2023/09/24 18:28:00;;;;;;;3.83;3.43;;;16.40;92.80;;;;;;10390413;28;20230;-77
2023/09/24 18:33:02;;;;;;;3.23;3.03;;;16.30;93.10;;;;;;10358970;28;20200;-78
2023/09/24 18:38:06;;;;;;;2.90;2.70;;;16.30;93.30;;;;;;10378738;28;20273;-78
2023/09/24 18:43:09;;;;;;;3.80;2.93;;;16.20;93.40;;;;;;10397871;28;20253;-77
2023/09/24 18:48:11;;;;;;;3.47;3.17;;;16.20;93.50;;;;;;10397600;28;20241;-76
2023/09/24 18:53:14;;;;;;;2.50;2.30;;;16.10;93.50;;;;;;10379704;28;20207;-78
2023/09/24 18:58:16;;;;;;;3.17;2.70;;;16.10;93.40;;;;;;10381749;28;20262;-77
2023/09/24 19:03:18;;;;;;;4.70;2.90;;;16.10;93.50;;;;;;10369768;28;20212;-77
2023/09/24 19:08:22;;;;;;;8.90;2.63;;;16.10;93.60;;;;;;10350670;28;20230;-77
2023/09/24 19:13:28;;;;;;;2.40;2.20;;;16.00;93.50;;;;;;10383552;28;20199;-77
2023/09/24 19:18:31;;;;;;;2.90;2.60;;;16.00;93.70;;;;;;10403691;28;20329;-77
2023/09/24 19:23:35;;;;;;;2.80;2.30;;;15.90;93.60;;;;;;10386116;28;20234;-77
2023/09/24 19:28:37;;;;;;;2.77;2.57;;;15.90;93.70;;;;;;10412995;28;20230;-78
2023/09/24 19:33:40;;;;;;;2.97;2.50;;;15.80;94.00;;;;;;10389105;28;20297;-77
2023/09/24 19:38:43;;;;;;;4.63;3.20;;;15.80;93.70;;;;;;10377705;28;20238;-77
2023/09/24 19:43:45;;;;;;;2.80;2.60;;;15.70;93.90;;;;;;10375883;28;20583;-77
2023/09/24 19:48:49;;;;;;;3.30;3.00;;;15.70;94.10;;;;;;10351144;28;20713;-77
2023/09/24 19:53:52;;;;;;;3.17;2.87;;;15.70;93.70;;;;;;10381304;28;20294;-77
2023/09/24 19:58:55;;;;;;;3.13;2.83;;;15.60;93.80;;;;;;10385432;28;20317;-77
2023/09/24 20:03:59;;;;;;;4.50;2.70;;;15.60;93.80;;;;;;10398351;28;20235;-77
2023/09/24 20:09:04;;;;;;;2.23;2.13;;;15.60;94.10;;;;;;10374913;28;20238;-77
2023/09/24 20:14:08;;;;;;;5.33;2.30;;;15.60;94.00;;;;;;10385383;28;20215;-77
2023/09/24 20:19:12;;;;;;;2.60;2.40;;;15.50;93.90;;;;;;10390407;28;20288;-77
2023/09/24 20:24:17;;;;;;;3.40;3.00;;;15.50;94.30;;;;;;10401025;28;20219;-77
2023/09/24 20:29:20;;;;;;;2.87;2.67;;;15.50;93.80;;;;;;10415344;28;20225;-77
2023/09/24 20:34:22;;;;;;;5.70;2.60;;;15.40;93.70;;;;;;10379604;28;20205;-76
2023/09/24 20:39:25;;;;;;;2.97;2.67;;;15.40;94.50;;;;;;10411602;28;20226;-78
2023/09/24 20:44:31;;;;;;;3.13;2.83;;;15.30;94.20;;;;;;10403488;28;20226;-76
2023/09/24 20:49:34;;;;;;;3.63;3.00;;;15.30;94.30;;;;;;10378707;28;20263;-77
2023/09/24 20:54:37;;;;;;;3.23;2.67;;;15.20;94.30;;;;;;10407522;28;20211;-76
2023/09/24 20:59:44;;;;;;;5.30;3.20;;;15.10;94.30;;;;;;10407769;28;20241;-76
2023/09/24 21:04:46;;;;;;;3.03;2.70;;;15.00;94.60;;;;;;10397369;28;20227;-76
2023/09/24 21:09:50;;;;;;;3.50;3.20;;;14.90;94.60;;;;;;10406213;28;20210;-76
2023/09/24 21:14:54;;;;;;;2.77;2.57;;;14.90;94.80;;;;;;10397674;28;20202;-76
2023/09/24 21:19:57;;;;;;;4.33;3.33;;;14.90;94.60;;;;;;10438099;22;20253;-80
2023/09/24 21:25:04;;;;;;;4.33;3.23;;;14.80;94.60;;;;;;10395626;28;20329;-79
2023/09/24 21:30:08;;;;;;;3.27;3.00;;;14.70;94.70;;;;;;10346817;28;20641;-76
2023/09/24 21:35:10;;;;;;;2.70;2.50;;;14.60;94.90;;;;;;10345226;28;20207;-77
2023/09/24 21:40:14;;;;;;;3.33;3.03;;;14.50;94.80;;;;;;10341921;28;20310;-77
2023/09/24 21:45:17;;;;;;;3.07;2.87;;;14.40;95.00;;;;;;10329834;28;20211;-78
2023/09/24 21:50:19;;;;;;;3.20;2.67;;;14.40;95.60;;;;;;10376721;28;20607;-78
2023/09/24 21:55:23;;;;;;;3.13;2.93;;;14.40;95.60;;;;;;10343217;28;20387;-78
2023/09/24 22:00:25;;;;;;;3.40;3.10;;;14.40;95.30;;;;;;10344942;28;20228;-78
2023/09/24 22:05:27;;;;;;;3.13;2.93;;;14.30;95.10;;;;;;10344802;28;20204;-78
2023/09/24 22:10:31;;;;;;;2.80;2.60;;;14.30;95.10;;;;;;10378344;28;20238;-78
2023/09/24 22:15:33;;;;;;;4.33;3.00;;;14.20;95.10;;;;;;10362923;28;20219;-78
2023/09/24 22:20:35;;;;;;;3.10;2.80;;;14.10;95.50;;;;;;10363562;28;20309;-78
2023/09/24 22:25:39;;;;;;;6.00;2.80;;;14.10;95.40;;;;;;10341771;28;20632;-79
2023/09/24 22:30:41;;;;;;;3.53;3.27;;;14.00;95.30;;;;;;10346376;28;20300;-78
2023/09/24 22:35:43;;;;;;;3.37;3.07;;;14.00;95.50;;;;;;10343436;28;20207;-78
2023/09/24 22:40:48;;;;;;;3.50;3.13;;;13.90;95.60;;;;;;10334178;28;20598;-78
2023/09/24 22:45:50;;;;;;;3.27;2.97;;;14.00;95.90;;;;;;10345412;28;20677;-77
2023/09/24 22:50:52;;;;;;;4.70;3.03;;;13.90;95.70;;;;;;10351295;28;20227;-77
2023/09/24 22:55:57;;;;;;;4.03;2.83;;;13.90;95.70;;;;;;10348917;28;20594;-78
2023/09/24 23:01:01;;;;;;;3.50;3.00;;;13.90;95.90;;;;;;10345787;28;20306;-78
2023/09/24 23:06:04;;;;;;;6.23;3.20;;;13.90;96.00;;;;;;10345650;28;20298;-78
2023/09/24 23:11:07;;;;;;;3.07;2.87;;;14.00;95.70;;;;;;10334965;28;20599;-78
2023/09/24 23:16:10;;;;;;;3.07;2.80;;;14.00;95.50;;;;;;10349069;28;20211;-78
2023/09/24 23:21:12;;;;;;;4.80;2.97;;;14.00;95.70;;;;;;10367132;28;20227;-78
2023/09/24 23:26:18;;;;;;;5.23;2.87;;;14.00;95.30;;;;;;10344814;28;20211;-79
2023/09/24 23:31:20;;;;;;;3.00;2.80;;;13.90;95.60;;;;;;10324558;28;20220;-78
2023/09/24 23:36:22;;;;;;;4.70;2.70;;;13.90;95.70;;;;;;10346414;28;20204;-78
2023/09/24 23:41:26;;;;;;;3.90;2.90;;;13.90;95.40;;;;;;10340610;28;20270;-78
2023/09/24 23:46:28;;;;;;;3.80;3.50;;;13.90;95.50;;;;;;10352219;28;20203;-78
2023/09/24 23:51:31;;;;;;;3.20;2.90;;;13.90;95.60;;;;;;10361798;28;20231;-78
2023/09/24 23:56:34;;;;;;;3.77;3.50;;;13.80;95.70;;;;;;10353533;28;20302;-79
